createdAt,value
2022-07-28T00:00:37.398Z,12.05
2022-07-28T00:03:22.836Z,12.06
2022-07-28T00:06:08.064Z,12.06
2022-07-28T00:08:55.278Z,12.02
2022-07-28T00:11:50.429Z,11.99
2022-07-28T00:14:40.592Z,11.92
2022-07-28T00:17:26.043Z,11.91
2022-07-28T00:20:12.092Z,11.90
2022-07-28T00:22:57.859Z,11.93
2022-07-28T00:25:43.506Z,11.91
2022-07-28T00:28:28.733Z,11.89
2022-07-28T00:31:14.047Z,11.86
2022-07-28T00:33:59.908Z,11.81
2022-07-28T00:36:45.420Z,11.82
2022-07-28T00:39:30.785Z,11.84
2022-07-28T00:42:20.568Z,11.80
2022-07-28T00:45:06.815Z,11.74
2022-07-28T00:47:52.185Z,11.72
2022-07-28T00:50:40.409Z,11.71
2022-07-28T00:53:27.070Z,11.71
2022-07-28T00:56:14.263Z,11.67
2022-07-28T00:59:00.212Z,11.66
2022-07-28T01:01:46.271Z,11.67
2022-07-28T01:04:32.397Z,11.65
2022-07-28T01:07:41.532Z,11.60
2022-07-28T01:10:46.883Z,11.59
2022-07-28T01:13:46.084Z,11.65
2022-07-28T01:16:31.713Z,11.70
2022-07-28T01:19:32.216Z,11.65
2022-07-28T01:22:23.023Z,11.61
2022-07-28T01:25:31.433Z,11.60
2022-07-28T01:28:22.836Z,11.55
2022-07-28T01:31:12.810Z,11.54
2022-07-28T01:34:13.663Z,11.51
2022-07-28T01:37:07.388Z,11.49
2022-07-28T01:39:57.545Z,11.55
2022-07-28T01:42:48.077Z,11.52
2022-07-28T01:45:34.713Z,11.49
2022-07-28T01:48:21.382Z,11.41
2022-07-28T01:51:08.905Z,11.45
2022-07-28T01:53:58.659Z,11.56
2022-07-28T01:56:45.208Z,11.63
2022-07-28T01:59:32.276Z,11.66
2022-07-28T02:02:20.697Z,11.68
2022-07-28T02:05:07.978Z,11.63
2022-07-28T02:07:55.816Z,11.67
2022-07-28T02:10:43.237Z,11.62
2022-07-28T02:13:28.767Z,11.58
2022-07-28T02:16:17.173Z,11.57
2022-07-28T02:19:03.747Z,11.57
2022-07-28T02:21:51.903Z,11.56
2022-07-28T02:24:38.468Z,11.57
2022-07-28T02:27:48.294Z,11.51
2022-07-28T02:30:49.272Z,11.49
2022-07-28T02:33:59.351Z,11.45
2022-07-28T02:36:50.018Z,11.38
2022-07-28T02:39:58.276Z,11.29
2022-07-28T02:42:49.192Z,11.27
2022-07-28T02:45:38.597Z,11.26
2022-07-28T02:48:28.133Z,11.28
2022-07-28T02:51:14.696Z,11.29
2022-07-28T02:54:01.543Z,11.36
2022-07-28T02:56:53.129Z,11.46
2022-07-28T02:59:40.686Z,11.49
2022-07-28T03:02:30.825Z,11.47
2022-07-28T03:05:17.360Z,11.43
2022-07-28T03:08:02.956Z,11.47
2022-07-28T03:10:48.613Z,11.50
2022-07-28T03:13:34.246Z,11.47
2022-07-28T03:16:19.588Z,11.43
2022-07-28T03:19:05.224Z,11.40
2022-07-28T03:21:53.067Z,11.33
2022-07-28T03:24:52.482Z,11.27
2022-07-28T03:27:41.862Z,11.24
2022-07-28T03:30:32.789Z,11.21
2022-07-28T03:33:18.863Z,11.19
2022-07-28T03:36:09.449Z,11.21
2022-07-28T03:39:02.141Z,11.22
2022-07-28T03:41:48.431Z,11.21
2022-07-28T03:44:34.900Z,11.17
2022-07-28T03:47:24.298Z,11.16
2022-07-28T03:50:09.709Z,11.19
2022-07-28T03:52:56.201Z,11.24
2022-07-28T03:55:42.078Z,11.24
2022-07-28T03:58:28.603Z,11.27
2022-07-28T04:01:14.959Z,11.29
2022-07-28T04:04:00.674Z,11.30
2022-07-28T04:06:46.225Z,11.36
2022-07-28T04:09:31.711Z,11.41
2022-07-28T04:12:17.038Z,11.46
2022-07-28T04:15:02.387Z,11.47
2022-07-28T04:17:51.486Z,11.51
2022-07-28T04:20:37.051Z,11.53
2022-07-28T04:23:22.599Z,11.55
2022-07-28T04:26:08.258Z,11.68
2022-07-28T04:28:53.635Z,11.74
2022-07-28T04:31:39.033Z,11.84
2022-07-28T04:34:24.425Z,11.91
2022-07-28T04:37:09.758Z,11.99
2022-07-28T04:39:55.059Z,12.06
2022-07-28T04:42:42.171Z,12.13
2022-07-28T04:45:28.118Z,12.19
2022-07-28T04:48:14.380Z,12.22
2022-07-28T04:51:02.606Z,12.21
2022-07-28T04:53:48.128Z,12.20
2022-07-28T04:56:34.009Z,12.19
2022-07-28T04:59:19.611Z,12.16
2022-07-28T05:02:06.741Z,12.16
2022-07-28T05:04:53.585Z,12.17
2022-07-28T05:07:41.322Z,12.21
2022-07-28T05:10:27.409Z,12.26
2022-07-28T05:13:13.437Z,12.29
2022-07-28T05:15:58.770Z,12.32
2022-07-28T05:18:44.131Z,12.34
2022-07-28T05:21:29.574Z,12.36
2022-07-28T05:24:15.543Z,12.39
2022-07-28T05:27:01.001Z,12.43
2022-07-28T05:29:47.427Z,12.45
2022-07-28T05:32:33.361Z,12.50
2022-07-28T05:35:18.752Z,12.55
2022-07-28T05:38:07.606Z,12.59
2022-07-28T05:40:56.665Z,12.61
2022-07-28T05:43:42.256Z,12.65
2022-07-28T05:46:28.990Z,12.71
2022-07-28T05:49:14.530Z,12.74
2022-07-28T05:52:00.021Z,12.80
2022-07-28T05:54:45.431Z,12.84
2022-07-28T05:57:30.716Z,12.89
2022-07-28T06:00:19.204Z,12.97
2022-07-28T06:03:06.070Z,12.99
2022-07-28T06:05:59.412Z,13.03
2022-07-28T06:09:00.998Z,13.09
2022-07-28T06:11:46.445Z,13.15
2022-07-28T06:14:31.894Z,13.20
2022-07-28T06:17:17.190Z,13.25
2022-07-28T06:20:03.530Z,13.30
2022-07-28T06:22:51.674Z,13.34
2022-07-28T06:25:37.324Z,13.37
2022-07-28T06:28:23.092Z,13.43
2022-07-28T06:31:08.403Z,13.45
2022-07-28T06:33:54.265Z,13.50
2022-07-28T06:36:39.733Z,13.55
2022-07-28T06:39:25.021Z,13.58
2022-07-28T06:42:11.455Z,13.62
2022-07-28T06:44:59.229Z,13.69
2022-07-28T06:47:45.820Z,13.76
2022-07-28T06:50:33.057Z,13.83
2022-07-28T06:53:18.610Z,13.89
2022-07-28T06:56:05.469Z,13.96
2022-07-28T06:58:51.888Z,14.03
2022-07-28T07:01:37.488Z,14.09
2022-07-28T07:04:23.030Z,14.15
2022-07-28T07:07:11.933Z,14.22
2022-07-28T07:10:04.785Z,14.26
2022-07-28T07:12:50.296Z,14.29
2022-07-28T07:15:35.555Z,14.31
2022-07-28T07:18:21.293Z,14.39
2022-07-28T07:21:07.049Z,14.47
2022-07-28T07:23:52.702Z,14.52
2022-07-28T07:26:38.570Z,14.64
2022-07-28T07:29:24.483Z,14.73
2022-07-28T07:32:11.146Z,14.77
2022-07-28T07:34:56.781Z,14.76
2022-07-28T07:37:42.291Z,14.81
2022-07-28T07:40:27.907Z,14.85
2022-07-28T07:43:13.298Z,14.89
2022-07-28T07:45:58.667Z,14.88
2022-07-28T07:48:44.851Z,14.93
2022-07-28T07:51:30.395Z,15.06
2022-07-28T07:54:16.103Z,15.17
2022-07-28T07:57:01.998Z,15.19
2022-07-28T07:59:47.507Z,15.19
2022-07-28T08:02:32.803Z,15.24
2022-07-28T08:05:18.333Z,15.38
2022-07-28T08:08:07.277Z,15.53
2022-07-28T08:10:54.076Z,15.66
2022-07-28T08:13:39.999Z,15.82
2022-07-28T08:16:26.636Z,15.98
2022-07-28T08:19:12.161Z,15.96
2022-07-28T08:21:58.168Z,16.07
2022-07-28T08:24:43.566Z,16.16
2022-07-28T08:27:28.887Z,16.07
2022-07-28T08:30:16.903Z,16.13
2022-07-28T08:33:07.652Z,16.21
2022-07-28T08:35:52.830Z,16.35
2022-07-28T08:38:38.304Z,16.54
2022-07-28T08:41:33.623Z,16.70
2022-07-28T08:44:25.211Z,16.69
2022-07-28T08:47:12.259Z,16.84
2022-07-28T08:49:59.823Z,16.94
2022-07-28T08:52:46.093Z,16.96
2022-07-28T08:55:32.487Z,17.00
2022-07-28T08:58:18.381Z,17.04
2022-07-28T09:01:05.397Z,17.01
2022-07-28T09:03:52.183Z,17.19
2022-07-28T09:06:42.297Z,17.31
2022-07-28T09:09:28.127Z,17.41
2022-07-28T09:12:13.409Z,17.45
2022-07-28T09:14:58.825Z,17.51
2022-07-28T09:17:44.246Z,17.34
2022-07-28T09:20:30.520Z,17.18
2022-07-28T09:23:41.985Z,17.18
2022-07-28T09:26:21.857Z,17.18
2022-07-28T09:29:08.627Z,17.20
2022-07-28T09:31:57.270Z,17.29
2022-07-28T09:34:45.343Z,17.34
2022-07-28T09:37:31.846Z,17.34
2022-07-28T09:40:18.272Z,17.30
2022-07-28T09:43:03.872Z,17.42
2022-07-28T09:46:03.889Z,17.36
2022-07-28T09:48:49.658Z,17.57
2022-07-28T09:51:35.907Z,17.91
2022-07-28T09:54:21.478Z,18.21
2022-07-28T09:57:11.857Z,18.43
2022-07-28T09:59:57.970Z,18.64
2022-07-28T10:02:50.324Z,18.77
2022-07-28T10:05:40.926Z,18.72
2022-07-28T10:08:48.110Z,18.65
2022-07-28T10:11:37.854Z,18.36
2022-07-28T10:14:33.010Z,18.48
2022-07-28T10:17:33.433Z,18.72
2022-07-28T10:20:18.881Z,18.90
2022-07-28T10:23:06.653Z,18.88
2022-07-28T10:25:54.400Z,18.67
2022-07-28T10:28:46.996Z,18.63
2022-07-28T10:31:45.350Z,18.71
2022-07-28T10:34:40.177Z,18.78
2022-07-28T10:37:28.169Z,18.94
2022-07-28T10:40:16.548Z,18.85
2022-07-28T10:43:03.288Z,18.89
2022-07-28T10:46:06.768Z,18.98
2022-07-28T10:48:53.939Z,18.84
2022-07-28T10:52:02.456Z,18.88
2022-07-28T10:55:31.623Z,18.83
2022-07-28T10:58:31.290Z,18.87
2022-07-28T11:01:52.872Z,18.57
2022-07-28T11:05:02.060Z,18.46
2022-07-28T11:07:47.887Z,18.58
2022-07-28T11:10:48.682Z,18.89
2022-07-28T11:13:40.781Z,19.01
2022-07-28T11:16:27.051Z,18.89
2022-07-28T11:19:40.716Z,18.86
2022-07-28T11:22:32.826Z,18.72
2022-07-28T11:25:22.129Z,18.83
2022-07-28T11:28:08.314Z,18.84
2022-07-28T11:30:54.886Z,18.78
2022-07-28T11:34:20.684Z,18.90
2022-07-28T11:37:06.962Z,18.72
2022-07-28T11:39:52.713Z,18.78
2022-07-28T11:42:38.793Z,18.90
2022-07-28T11:45:30.731Z,19.05
2022-07-28T11:48:25.334Z,19.32
2022-07-28T11:51:12.039Z,19.78
2022-07-28T11:53:58.100Z,20.12
2022-07-28T11:56:44.387Z,20.22
2022-07-28T11:59:42.002Z,20.06
2022-07-28T12:02:29.085Z,20.33
2022-07-28T12:05:18.019Z,20.32
2022-07-28T12:08:03.588Z,20.42
2022-07-28T12:10:56.568Z,20.46
2022-07-28T12:13:42.699Z,20.22
2022-07-28T12:16:29.346Z,20.00
2022-07-28T12:19:16.724Z,19.60
2022-07-28T12:22:14.939Z,19.15
2022-07-28T12:25:01.205Z,18.91
2022-07-28T12:27:46.957Z,19.05
2022-07-28T12:30:33.581Z,19.03
2022-07-28T12:33:29.025Z,19.33
2022-07-28T12:36:18.949Z,19.26
2022-07-28T12:39:12.427Z,19.22
2022-07-28T12:42:04.741Z,19.23
2022-07-28T12:44:54.227Z,19.37
2022-07-28T12:47:40.230Z,19.51
2022-07-28T12:50:27.272Z,19.92
2022-07-28T12:53:13.631Z,19.77
2022-07-28T12:56:02.606Z,19.22
2022-07-28T12:58:48.730Z,19.05
2022-07-28T13:02:04.169Z,19.38
2022-07-28T13:04:50.496Z,19.83
2022-07-28T13:07:36.764Z,19.81
2022-07-28T13:10:22.509Z,19.67
2022-07-28T13:13:08.076Z,19.62
2022-07-28T13:16:15.613Z,19.69
2022-07-28T13:19:04.601Z,19.84
2022-07-28T13:21:57.009Z,19.96
2022-07-28T13:24:45.332Z,19.95
2022-07-28T13:27:32.800Z,19.93
2022-07-28T13:30:18.388Z,19.80
2022-07-28T13:33:04.031Z,19.41
2022-07-28T13:35:50.525Z,19.49
2022-07-28T13:38:36.343Z,19.63
2022-07-28T13:41:21.750Z,19.81
2022-07-28T13:44:07.153Z,20.03
2022-07-28T13:46:56.588Z,20.23
2022-07-28T13:49:42.471Z,20.39
2022-07-28T13:52:33.207Z,20.58
2022-07-28T13:55:22.988Z,20.68
2022-07-28T13:58:09.038Z,20.72
2022-07-28T14:00:55.150Z,20.50
2022-07-28T14:03:53.564Z,20.47
2022-07-28T14:06:45.143Z,20.94
2022-07-28T14:09:30.783Z,21.30
2022-07-28T14:12:16.051Z,21.44
2022-07-28T14:15:01.710Z,21.57
2022-07-28T14:17:46.908Z,21.36
2022-07-28T14:20:32.806Z,21.21
2022-07-28T14:23:18.377Z,20.95
2022-07-28T14:26:33.200Z,20.51
2022-07-28T14:29:11.508Z,20.15
2022-07-28T14:31:59.476Z,20.18
2022-07-28T14:34:45.023Z,20.22
2022-07-28T14:37:47.081Z,20.21
2022-07-28T14:40:39.203Z,19.92
2022-07-28T14:43:25.798Z,19.83
2022-07-28T14:46:16.243Z,19.84
2022-07-28T14:49:06.216Z,19.63
2022-07-28T14:51:51.856Z,19.59
2022-07-28T14:54:37.335Z,19.57
2022-07-28T14:57:24.993Z,19.52
2022-07-28T15:00:31.080Z,19.55
2022-07-28T15:03:17.190Z,19.53
2022-07-28T15:06:03.589Z,19.44
2022-07-28T15:08:48.848Z,19.44
2022-07-28T15:11:34.258Z,19.53
2022-07-28T15:14:21.340Z,19.62
2022-07-28T15:17:07.458Z,19.73
2022-07-28T15:19:53.044Z,19.77
2022-07-28T15:22:38.389Z,19.83
2022-07-28T15:25:23.847Z,19.86
2022-07-28T15:28:10.517Z,19.90
2022-07-28T15:31:03.712Z,19.89
2022-07-28T15:33:57.445Z,19.88
2022-07-28T15:36:43.817Z,19.95
2022-07-28T15:39:30.873Z,19.99
2022-07-28T15:42:17.677Z,19.90
2022-07-28T15:45:03.065Z,19.86
2022-07-28T15:47:48.280Z,19.79
2022-07-28T15:50:33.627Z,19.78
2022-07-28T15:53:19.301Z,19.81
2022-07-28T15:56:05.415Z,19.81
2022-07-28T15:58:51.191Z,19.82
2022-07-28T16:01:37.445Z,19.85
2022-07-28T16:04:25.393Z,19.98
2022-07-28T16:07:19.711Z,20.07
2022-07-28T16:10:08.902Z,20.26
2022-07-28T16:12:56.090Z,20.33
2022-07-28T16:15:41.745Z,20.39
2022-07-28T16:18:27.578Z,20.49
2022-07-28T16:21:13.166Z,20.44
2022-07-28T16:23:58.448Z,20.46
2022-07-28T16:26:43.792Z,20.53
2022-07-28T16:29:29.199Z,20.53
2022-07-28T16:32:17.284Z,20.55
2022-07-28T16:35:03.371Z,20.55
2022-07-28T16:37:48.685Z,20.55
2022-07-28T16:40:34.116Z,20.50
2022-07-28T16:43:19.443Z,20.43
2022-07-28T16:46:04.897Z,20.42
2022-07-28T16:48:50.761Z,20.33
2022-07-28T16:51:36.096Z,20.33
2022-07-28T16:54:21.853Z,20.28
2022-07-28T16:57:07.453Z,20.26
2022-07-28T16:59:53.379Z,20.12
2022-07-28T17:02:38.934Z,20.07
2022-07-28T17:05:24.938Z,20.06
2022-07-28T17:08:11.287Z,20.05
2022-07-28T17:10:56.931Z,20.01
2022-07-28T17:13:45.384Z,20.01
2022-07-28T17:16:31.460Z,19.97
2022-07-28T17:19:21.532Z,19.94
2022-07-28T17:22:07.518Z,19.95
2022-07-28T17:24:53.155Z,19.90
2022-07-28T17:27:42.219Z,19.87
2022-07-28T17:30:32.933Z,19.86
2022-07-28T17:33:21.476Z,19.77
2022-07-28T17:36:07.217Z,19.71
2022-07-28T17:38:52.662Z,19.65
2022-07-28T17:41:39.114Z,19.62
2022-07-28T17:44:24.931Z,19.60
2022-07-28T17:47:10.319Z,19.60
2022-07-28T17:49:55.628Z,19.55
2022-07-28T17:52:42.041Z,19.49
2022-07-28T17:55:40.722Z,19.47
2022-07-28T17:58:41.606Z,19.44
2022-07-28T18:01:27.034Z,19.42
2022-07-28T18:04:13.064Z,19.33
2022-07-28T18:06:59.334Z,19.20
2022-07-28T18:09:44.688Z,19.11
2022-07-28T18:12:30.128Z,19.06
2022-07-28T18:15:15.485Z,19.11
2022-07-28T18:18:02.223Z,19.56
2022-07-28T18:20:48.147Z,20.04
2022-07-28T18:23:33.758Z,20.28
2022-07-28T18:26:19.817Z,20.23
2022-07-28T18:29:05.406Z,20.16
2022-07-28T18:31:51.711Z,20.06
2022-07-28T18:34:39.245Z,19.84
2022-07-28T18:37:25.139Z,19.62
2022-07-28T18:40:12.316Z,19.38
2022-07-28T18:42:59.217Z,19.15
2022-07-28T18:45:44.804Z,18.95
2022-07-28T18:48:30.280Z,18.80
2022-07-28T18:51:15.632Z,18.66
2022-07-28T18:54:01.320Z,18.54
2022-07-28T18:56:47.039Z,18.40
2022-07-28T18:59:32.855Z,18.29
2022-07-28T19:02:18.727Z,18.21
2022-07-28T19:05:09.150Z,18.13
2022-07-28T19:07:54.521Z,17.98
2022-07-28T19:10:39.994Z,17.83
2022-07-28T19:13:25.628Z,17.71
2022-07-28T19:16:11.044Z,17.61
2022-07-28T19:18:56.439Z,17.46
2022-07-28T19:21:43.386Z,17.32
2022-07-28T19:24:29.333Z,17.21
2022-07-28T19:27:14.809Z,17.10
2022-07-28T19:30:00.316Z,17.03
2022-07-28T19:32:45.875Z,16.93
2022-07-28T19:35:31.462Z,16.84
2022-07-28T19:38:16.815Z,16.75
2022-07-28T19:41:02.426Z,16.64
2022-07-28T19:43:47.826Z,16.60
2022-07-28T19:46:33.401Z,16.50
2022-07-28T19:49:19.161Z,16.45
2022-07-28T19:52:06.083Z,16.39
2022-07-28T19:54:51.949Z,16.34
2022-07-28T19:57:37.822Z,16.28
2022-07-28T20:00:23.368Z,16.17
2022-07-28T20:04:00.037Z,16.11
2022-07-28T20:06:15.279Z,16.05
2022-07-28T20:09:02.112Z,15.99
2022-07-28T20:11:49.199Z,15.93
2022-07-28T20:14:34.715Z,15.84
2022-07-28T20:17:37.391Z,15.76
2022-07-28T20:20:24.193Z,15.68
2022-07-28T20:23:09.669Z,15.62
2022-07-28T20:25:55.119Z,15.56
2022-07-28T20:28:40.819Z,15.51
2022-07-28T20:31:26.195Z,15.44
2022-07-28T20:34:13.193Z,15.41
2022-07-28T20:36:58.756Z,15.33
2022-07-28T20:39:45.481Z,15.25
2022-07-28T20:42:31.715Z,15.18
2022-07-28T20:45:17.402Z,15.11
2022-07-28T20:48:02.753Z,15.06
2022-07-28T20:50:48.297Z,15.00
2022-07-28T20:53:34.020Z,14.91
2022-07-28T20:56:19.683Z,14.82
2022-07-28T20:59:07.032Z,14.76
2022-07-28T21:01:52.842Z,14.65
2022-07-28T21:04:38.313Z,14.57
2022-07-28T21:08:04.778Z,14.50
2022-07-28T21:10:30.453Z,14.39
2022-07-28T21:13:15.833Z,14.32
2022-07-28T21:16:01.226Z,14.24
2022-07-28T21:18:47.119Z,14.14
2022-07-28T21:21:32.506Z,14.04
2022-07-28T21:24:18.577Z,13.95
2022-07-28T21:27:04.233Z,13.88
2022-07-28T21:32:35.982Z,13.71
2022-07-28T21:35:21.464Z,13.63
2022-07-28T21:38:07.091Z,13.44
2022-07-28T21:40:52.675Z,13.36
2022-07-28T21:43:38.366Z,13.30
2022-07-28T21:46:25.725Z,13.27
2022-07-28T21:49:11.921Z,13.14
2022-07-28T21:51:57.449Z,13.00
2022-07-28T21:54:42.821Z,12.91
2022-07-28T21:57:28.261Z,12.75
2022-07-28T22:00:13.951Z,12.64
2022-07-28T22:03:00.264Z,12.46
2022-07-28T22:05:46.353Z,12.33
2022-07-28T22:08:33.336Z,12.38
2022-07-28T22:11:18.863Z,12.36
2022-07-28T22:14:04.210Z,12.26
2022-07-28T22:16:49.462Z,12.21
2022-07-28T22:19:35.246Z,12.14
2022-07-28T22:22:20.594Z,12.12
2022-07-28T22:25:07.015Z,12.16
2022-07-28T22:27:52.507Z,12.26
2022-07-28T22:30:38.170Z,12.32
2022-07-28T22:33:23.435Z,12.14
2022-07-28T22:36:09.247Z,12.06
2022-07-28T22:38:55.594Z,11.84
2022-07-28T22:41:40.973Z,11.69
2022-07-28T22:44:28.238Z,11.61
2022-07-28T22:47:13.865Z,11.46
2022-07-28T22:49:59.052Z,11.34
2022-07-28T22:52:44.455Z,11.23
2022-07-28T22:58:32.675Z,11.07
2022-07-28T23:01:18.023Z,11.04
2022-07-28T23:04:04.675Z,10.97
2022-07-28T23:06:50.541Z,11.04
2022-07-28T23:09:36.232Z,11.14
2022-07-28T23:12:21.714Z,11.07
2022-07-28T23:15:07.767Z,10.94
2022-07-28T23:17:53.496Z,10.78
2022-07-28T23:20:40.140Z,10.76
2022-07-28T23:23:25.771Z,10.71
2022-07-28T23:26:11.421Z,10.71
2022-07-28T23:28:57.182Z,10.67
2022-07-28T23:31:42.729Z,10.60
2022-07-28T23:34:28.240Z,10.50
2022-07-28T23:37:13.937Z,10.46
2022-07-28T23:39:59.496Z,10.46
2022-07-28T23:42:45.014Z,10.48
2022-07-28T23:45:30.372Z,10.51
2022-07-28T23:48:15.777Z,10.48
2022-07-28T23:51:01.548Z,10.40
2022-07-28T23:53:46.970Z,10.34
2022-07-28T23:56:32.230Z,10.26
2022-07-28T23:59:17.787Z,10.26
